sensor_id;sensor_type;location;lat;lon;timestamp;P1;durP1;ratioP1;P2;durP2;ratioP2
22826;SDS011;11580;52.562;13.418;2024-03-02T00:00:51;39.73;;;35.70;;
22826;SDS011;11580;52.562;13.418;2024-03-02T00:03:20;40.23;;;36.17;;
22826;SDS011;11580;52.562;13.418;2024-03-02T00:05:50;39.20;;;35.10;;
22826;SDS011;11580;52.562;13.418;2024-03-02T00:08:21;40.50;;;36.50;;
22826;SDS011;11580;52.562;13.418;2024-03-02T00:10:52;39.20;;;35.27;;
22826;SDS011;11580;52.562;13.418;2024-03-02T00:13:24;41.60;;;36.33;;
22826;SDS011;11580;52.562;13.418;2024-03-02T00:15:51;39.07;;;35.07;;
22826;SDS011;11580;52.562;13.418;2024-03-02T00:18:26;39.40;;;35.27;;
22826;SDS011;11580;52.562;13.418;2024-03-02T00:20:57;39.13;;;35.17;;
22826;SDS011;11580;52.562;13.418;2024-03-02T00:23:27;39.80;;;35.67;;
22826;SDS011;11580;52.562;13.418;2024-03-02T00:25:56;36.70;;;33.00;;
22826;SDS011;11580;52.562;13.418;2024-03-02T00:28:25;40.23;;;35.77;;
22826;SDS011;11580;52.562;13.418;2024-03-02T00:30:59;39.43;;;35.30;;
22826;SDS011;11580;52.562;13.418;2024-03-02T00:33:34;37.73;;;33.83;;
22826;SDS011;11580;52.562;13.418;2024-03-02T00:36:04;43.67;;;35.40;;
22826;SDS011;11580;52.562;13.418;2024-03-02T00:38:33;41.97;;;37.57;;
22826;SDS011;11580;52.562;13.418;2024-03-02T00:41:08;40.67;;;36.50;;
22826;SDS011;11580;52.562;13.418;2024-03-02T00:43:47;39.83;;;36.07;;
22826;SDS011;11580;52.562;13.418;2024-03-02T00:46:24;38.57;;;34.77;;
22826;SDS011;11580;52.562;13.418;2024-03-02T00:48:53;38.63;;;34.83;;
22826;SDS011;11580;52.562;13.418;2024-03-02T00:51:22;38.70;;;34.90;;
22826;SDS011;11580;52.562;13.418;2024-03-02T00:53:51;38.30;;;34.37;;
22826;SDS011;11580;52.562;13.418;2024-03-02T00:56:21;38.80;;;34.97;;
22826;SDS011;11580;52.562;13.418;2024-03-02T00:58:49;39.27;;;35.33;;
22826;SDS011;11580;52.562;13.418;2024-03-02T01:01:17;38.27;;;34.37;;
22826;SDS011;11580;52.562;13.418;2024-03-02T01:03:44;40.47;;;36.30;;
22826;SDS011;11580;52.562;13.418;2024-03-02T01:06:13;38.60;;;34.73;;
22826;SDS011;11580;52.562;13.418;2024-03-02T01:08:41;39.30;;;35.30;;
22826;SDS011;11580;52.562;13.418;2024-03-02T01:11:09;35.97;;;32.20;;
22826;SDS011;11580;52.562;13.418;2024-03-02T01:13:36;37.13;;;33.23;;
22826;SDS011;11580;52.562;13.418;2024-03-02T01:16:04;38.00;;;34.10;;
22826;SDS011;11580;52.562;13.418;2024-03-02T01:18:31;36.47;;;32.50;;
22826;SDS011;11580;52.562;13.418;2024-03-02T01:20:59;37.50;;;33.63;;
22826;SDS011;11580;52.562;13.418;2024-03-02T01:23:28;36.30;;;32.57;;
22826;SDS011;11580;52.562;13.418;2024-03-02T01:25:55;37.33;;;33.57;;
22826;SDS011;11580;52.562;13.418;2024-03-02T01:28:22;38.60;;;32.40;;
22826;SDS011;11580;52.562;13.418;2024-03-02T01:30:49;37.17;;;33.40;;
22826;SDS011;11580;52.562;13.418;2024-03-02T01:33:16;36.83;;;33.20;;
22826;SDS011;11580;52.562;13.418;2024-03-02T01:35:44;37.33;;;33.53;;
22826;SDS011;11580;52.562;13.418;2024-03-02T01:38:11;38.47;;;33.77;;
22826;SDS011;11580;52.562;13.418;2024-03-02T01:40:39;38.03;;;34.00;;
22826;SDS011;11580;52.562;13.418;2024-03-02T01:43:09;37.73;;;33.73;;
22826;SDS011;11580;52.562;13.418;2024-03-02T01:45:36;37.73;;;33.50;;
22826;SDS011;11580;52.562;13.418;2024-03-02T01:48:04;38.03;;;34.27;;
22826;SDS011;11580;52.562;13.418;2024-03-02T01:50:33;38.47;;;34.57;;
22826;SDS011;11580;52.562;13.418;2024-03-02T01:53:01;33.87;;;30.57;;
22826;SDS011;11580;52.562;13.418;2024-03-02T01:55:29;39.77;;;35.80;;
22826;SDS011;11580;52.562;13.418;2024-03-02T01:57:57;40.30;;;36.10;;
22826;SDS011;11580;52.562;13.418;2024-03-02T02:00:25;37.03;;;33.30;;
22826;SDS011;11580;52.562;13.418;2024-03-02T02:02:52;38.27;;;34.30;;
22826;SDS011;11580;52.562;13.418;2024-03-02T02:05:20;37.80;;;33.97;;
22826;SDS011;11580;52.562;13.418;2024-03-02T02:07:47;36.17;;;32.57;;
22826;SDS011;11580;52.562;13.418;2024-03-02T02:10:14;37.53;;;33.60;;
22826;SDS011;11580;52.562;13.418;2024-03-02T02:12:42;35.87;;;32.43;;
22826;SDS011;11580;52.562;13.418;2024-03-02T02:15:24;36.73;;;33.13;;
22826;SDS011;11580;52.562;13.418;2024-03-02T02:17:52;36.30;;;32.57;;
22826;SDS011;11580;52.562;13.418;2024-03-02T02:20:20;36.00;;;32.27;;
22826;SDS011;11580;52.562;13.418;2024-03-02T02:22:58;38.23;;;33.40;;
22826;SDS011;11580;52.562;13.418;2024-03-02T02:25:27;36.80;;;32.90;;
22826;SDS011;11580;52.562;13.418;2024-03-02T02:27:54;38.13;;;34.13;;
22826;SDS011;11580;52.562;13.418;2024-03-02T02:30:23;37.43;;;33.73;;
22826;SDS011;11580;52.562;13.418;2024-03-02T02:32:52;36.57;;;32.77;;
22826;SDS011;11580;52.562;13.418;2024-03-02T02:35:20;35.93;;;32.23;;
22826;SDS011;11580;52.562;13.418;2024-03-02T02:37:49;37.87;;;34.27;;
22826;SDS011;11580;52.562;13.418;2024-03-02T02:40:19;37.60;;;33.70;;
22826;SDS011;11580;52.562;13.418;2024-03-02T02:42:47;35.23;;;31.67;;
22826;SDS011;11580;52.562;13.418;2024-03-02T02:45:14;36.87;;;33.23;;
22826;SDS011;11580;52.562;13.418;2024-03-02T02:47:41;39.70;;;35.70;;
22826;SDS011;11580;52.562;13.418;2024-03-02T02:50:10;36.03;;;32.23;;
22826;SDS011;11580;52.562;13.418;2024-03-02T02:52:39;37.10;;;33.20;;
22826;SDS011;11580;52.562;13.418;2024-03-02T02:55:07;37.00;;;33.40;;
22826;SDS011;11580;52.562;13.418;2024-03-02T02:57:38;38.43;;;34.33;;
22826;SDS011;11580;52.562;13.418;2024-03-02T03:00:08;39.27;;;34.90;;
22826;SDS011;11580;52.562;13.418;2024-03-02T03:02:39;38.13;;;34.10;;
22826;SDS011;11580;52.562;13.418;2024-03-02T03:05:07;36.80;;;32.80;;
22826;SDS011;11580;52.562;13.418;2024-03-02T03:07:37;37.63;;;33.67;;
22826;SDS011;11580;52.562;13.418;2024-03-02T03:10:06;36.30;;;32.50;;
22826;SDS011;11580;52.562;13.418;2024-03-02T03:12:34;39.00;;;34.93;;
22826;SDS011;11580;52.562;13.418;2024-03-02T03:15:04;37.77;;;33.07;;
22826;SDS011;11580;52.562;13.418;2024-03-02T03:17:33;37.33;;;33.53;;
22826;SDS011;11580;52.562;13.418;2024-03-02T03:20:01;38.07;;;34.17;;
22826;SDS011;11580;52.562;13.418;2024-03-02T03:22:29;38.43;;;34.27;;
22826;SDS011;11580;52.562;13.418;2024-03-02T03:24:56;36.20;;;32.60;;
22826;SDS011;11580;52.562;13.418;2024-03-02T03:27:24;34.93;;;31.50;;
22826;SDS011;11580;52.562;13.418;2024-03-02T03:29:52;37.50;;;33.50;;
22826;SDS011;11580;52.562;13.418;2024-03-02T03:32:20;36.87;;;33.27;;
22826;SDS011;11580;52.562;13.418;2024-03-02T03:34:48;35.00;;;31.50;;
22826;SDS011;11580;52.562;13.418;2024-03-02T03:37:15;34.97;;;31.37;;
22826;SDS011;11580;52.562;13.418;2024-03-02T03:39:42;35.67;;;32.00;;
22826;SDS011;11580;52.562;13.418;2024-03-02T03:42:10;32.90;;;29.47;;
22826;SDS011;11580;52.562;13.418;2024-03-02T03:44:37;33.10;;;29.80;;
22826;SDS011;11580;52.562;13.418;2024-03-02T03:47:04;34.07;;;30.77;;
22826;SDS011;11580;52.562;13.418;2024-03-02T03:49:33;34.93;;;30.53;;
22826;SDS011;11580;52.562;13.418;2024-03-02T03:52:01;33.97;;;30.57;;
22826;SDS011;11580;52.562;13.418;2024-03-02T03:54:29;34.63;;;31.10;;
22826;SDS011;11580;52.562;13.418;2024-03-02T03:56:56;30.87;;;27.77;;
22826;SDS011;11580;52.562;13.418;2024-03-02T03:59:23;33.73;;;30.30;;
22826;SDS011;11580;52.562;13.418;2024-03-02T04:01:50;34.00;;;30.40;;
22826;SDS011;11580;52.562;13.418;2024-03-02T04:04:18;33.07;;;29.97;;
22826;SDS011;11580;52.562;13.418;2024-03-02T04:06:47;32.93;;;29.50;;
22826;SDS011;11580;52.562;13.418;2024-03-02T04:09:14;31.57;;;28.50;;
22826;SDS011;11580;52.562;13.418;2024-03-02T04:11:41;33.33;;;30.00;;
22826;SDS011;11580;52.562;13.418;2024-03-02T04:14:09;32.63;;;29.17;;
22826;SDS011;11580;52.562;13.418;2024-03-02T04:16:37;30.43;;;27.37;;
22826;SDS011;11580;52.562;13.418;2024-03-02T04:19:05;29.83;;;26.90;;
22826;SDS011;11580;52.562;13.418;2024-03-02T04:21:32;31.03;;;27.80;;
22826;SDS011;11580;52.562;13.418;2024-03-02T04:24:00;29.73;;;26.83;;
22826;SDS011;11580;52.562;13.418;2024-03-02T04:26:28;30.90;;;27.13;;
22826;SDS011;11580;52.562;13.418;2024-03-02T04:28:55;29.87;;;26.97;;
22826;SDS011;11580;52.562;13.418;2024-03-02T04:31:22;30.10;;;27.17;;
22826;SDS011;11580;52.562;13.418;2024-03-02T04:33:49;27.40;;;24.80;;
22826;SDS011;11580;52.562;13.418;2024-03-02T04:36:17;29.30;;;26.33;;
22826;SDS011;11580;52.562;13.418;2024-03-02T04:38:44;27.53;;;24.90;;
22826;SDS011;11580;52.562;13.418;2024-03-02T04:41:12;28.57;;;25.97;;
22826;SDS011;11580;52.562;13.418;2024-03-02T04:43:39;29.17;;;26.20;;
22826;SDS011;11580;52.562;13.418;2024-03-02T04:46:07;28.43;;;25.73;;
22826;SDS011;11580;52.562;13.418;2024-03-02T04:48:34;29.30;;;26.50;;
22826;SDS011;11580;52.562;13.418;2024-03-02T04:51:01;29.10;;;26.30;;
22826;SDS011;11580;52.562;13.418;2024-03-02T04:53:28;28.70;;;25.97;;
22826;SDS011;11580;52.562;13.418;2024-03-02T04:55:55;30.03;;;26.97;;
22826;SDS011;11580;52.562;13.418;2024-03-02T04:59:05;27.33;;;24.80;;
22826;SDS011;11580;52.562;13.418;2024-03-02T05:01:33;28.80;;;26.07;;
22826;SDS011;11580;52.562;13.418;2024-03-02T05:04:00;28.67;;;25.87;;
22826;SDS011;11580;52.562;13.418;2024-03-02T05:06:27;30.27;;;27.33;;
22826;SDS011;11580;52.562;13.418;2024-03-02T05:08:55;29.17;;;26.17;;
22826;SDS011;11580;52.562;13.418;2024-03-02T05:11:22;30.17;;;27.10;;
22826;SDS011;11580;52.562;13.418;2024-03-02T05:14:15;32.57;;;27.57;;
22826;SDS011;11580;52.562;13.418;2024-03-02T05:16:41;29.70;;;26.90;;
22826;SDS011;11580;52.562;13.418;2024-03-02T05:19:08;29.47;;;26.67;;
22826;SDS011;11580;52.562;13.418;2024-03-02T05:21:35;30.43;;;27.40;;
22826;SDS011;11580;52.562;13.418;2024-03-02T05:24:02;28.60;;;25.50;;
22826;SDS011;11580;52.562;13.418;2024-03-02T05:26:30;30.27;;;27.20;;
22826;SDS011;11580;52.562;13.418;2024-03-02T05:28:57;27.87;;;25.17;;
22826;SDS011;11580;52.562;13.418;2024-03-02T05:31:25;30.07;;;27.07;;
22826;SDS011;11580;52.562;13.418;2024-03-02T05:33:53;30.50;;;27.53;;
22826;SDS011;11580;52.562;13.418;2024-03-02T05:36:20;30.20;;;27.20;;
22826;SDS011;11580;52.562;13.418;2024-03-02T05:38:47;31.67;;;28.67;;
22826;SDS011;11580;52.562;13.418;2024-03-02T05:41:14;30.60;;;27.50;;
22826;SDS011;11580;52.562;13.418;2024-03-02T05:43:41;31.20;;;28.07;;
22826;SDS011;11580;52.562;13.418;2024-03-02T05:46:08;30.33;;;27.53;;
22826;SDS011;11580;52.562;13.418;2024-03-02T05:48:37;30.37;;;27.27;;
22826;SDS011;11580;52.562;13.418;2024-03-02T05:51:04;30.53;;;27.50;;
22826;SDS011;11580;52.562;13.418;2024-03-02T05:53:31;32.30;;;29.30;;
22826;SDS011;11580;52.562;13.418;2024-03-02T05:55:58;30.37;;;27.40;;
22826;SDS011;11580;52.562;13.418;2024-03-02T05:58:26;33.23;;;30.17;;
22826;SDS011;11580;52.562;13.418;2024-03-02T06:01:03;31.90;;;28.93;;
22826;SDS011;11580;52.562;13.418;2024-03-02T06:03:30;32.00;;;28.87;;
22826;SDS011;11580;52.562;13.418;2024-03-02T06:05:59;33.10;;;29.73;;
22826;SDS011;11580;52.562;13.418;2024-03-02T06:08:26;33.77;;;30.37;;
22826;SDS011;11580;52.562;13.418;2024-03-02T06:10:53;33.50;;;29.17;;
22826;SDS011;11580;52.562;13.418;2024-03-02T06:13:21;33.93;;;30.40;;
22826;SDS011;11580;52.562;13.418;2024-03-02T06:15:50;31.77;;;28.67;;
22826;SDS011;11580;52.562;13.418;2024-03-02T06:18:17;31.13;;;28.20;;
22826;SDS011;11580;52.562;13.418;2024-03-02T06:20:44;31.70;;;28.43;;
22826;SDS011;11580;52.562;13.418;2024-03-02T06:23:13;32.80;;;29.37;;
22826;SDS011;11580;52.562;13.418;2024-03-02T06:25:41;34.13;;;30.63;;
22826;SDS011;11580;52.562;13.418;2024-03-02T06:28:08;33.70;;;30.27;;
22826;SDS011;11580;52.562;13.418;2024-03-02T06:30:35;33.77;;;30.17;;
22826;SDS011;11580;52.562;13.418;2024-03-02T06:33:02;32.73;;;29.20;;
22826;SDS011;11580;52.562;13.418;2024-03-02T06:35:31;32.67;;;29.30;;
22826;SDS011;11580;52.562;13.418;2024-03-02T06:37:58;34.27;;;30.90;;
22826;SDS011;11580;52.562;13.418;2024-03-02T06:40:27;34.67;;;31.27;;
22826;SDS011;11580;52.562;13.418;2024-03-02T06:42:54;35.53;;;31.83;;
22826;SDS011;11580;52.562;13.418;2024-03-02T06:45:21;35.60;;;31.90;;
22826;SDS011;11580;52.562;13.418;2024-03-02T06:47:48;34.57;;;30.27;;
22826;SDS011;11580;52.562;13.418;2024-03-02T06:50:15;35.50;;;31.90;;
22826;SDS011;11580;52.562;13.418;2024-03-02T06:52:42;33.90;;;30.60;;
22826;SDS011;11580;52.562;13.418;2024-03-02T06:55:10;35.17;;;31.60;;
22826;SDS011;11580;52.562;13.418;2024-03-02T06:57:38;34.70;;;31.23;;
22826;SDS011;11580;52.562;13.418;2024-03-02T07:00:06;34.40;;;30.70;;
22826;SDS011;11580;52.562;13.418;2024-03-02T07:02:34;33.20;;;29.80;;
22826;SDS011;11580;52.562;13.418;2024-03-02T07:05:01;32.93;;;29.53;;
22826;SDS011;11580;52.562;13.418;2024-03-02T07:07:30;34.93;;;31.17;;
22826;SDS011;11580;52.562;13.418;2024-03-02T07:09:57;34.00;;;30.60;;
22826;SDS011;11580;52.562;13.418;2024-03-02T07:12:24;34.60;;;31.13;;
22826;SDS011;11580;52.562;13.418;2024-03-02T07:14:53;32.93;;;29.40;;
22826;SDS011;11580;52.562;13.418;2024-03-02T07:17:33;35.23;;;31.50;;
22826;SDS011;11580;52.562;13.418;2024-03-02T07:20:02;39.93;;;31.50;;
22826;SDS011;11580;52.562;13.418;2024-03-02T07:22:31;30.97;;;28.00;;
22826;SDS011;11580;52.562;13.418;2024-03-02T07:24:59;34.00;;;30.27;;
22826;SDS011;11580;52.562;13.418;2024-03-02T07:27:27;35.17;;;31.10;;
22826;SDS011;11580;52.562;13.418;2024-03-02T07:29:56;35.50;;;31.80;;
22826;SDS011;11580;52.562;13.418;2024-03-02T07:32:23;35.93;;;31.97;;
22826;SDS011;11580;52.562;13.418;2024-03-02T07:34:50;36.23;;;32.50;;
22826;SDS011;11580;52.562;13.418;2024-03-02T07:37:17;35.97;;;30.70;;
22826;SDS011;11580;52.562;13.418;2024-03-02T07:39:45;34.83;;;31.60;;
22826;SDS011;11580;52.562;13.418;2024-03-02T07:42:12;36.30;;;32.60;;
22826;SDS011;11580;52.562;13.418;2024-03-02T07:44:40;36.30;;;32.60;;
22826;SDS011;11580;52.562;13.418;2024-03-02T07:47:08;35.23;;;31.50;;
22826;SDS011;11580;52.562;13.418;2024-03-02T07:49:36;33.83;;;30.43;;
22826;SDS011;11580;52.562;13.418;2024-03-02T07:52:03;35.77;;;32.13;;
22826;SDS011;11580;52.562;13.418;2024-03-02T07:54:30;35.47;;;31.90;;
22826;SDS011;11580;52.562;13.418;2024-03-02T07:56:58;36.47;;;32.70;;
22826;SDS011;11580;52.562;13.418;2024-03-02T07:59:25;33.37;;;29.80;;
22826;SDS011;11580;52.562;13.418;2024-03-02T08:01:52;36.50;;;32.63;;
22826;SDS011;11580;52.562;13.418;2024-03-02T08:04:21;34.10;;;30.50;;
22826;SDS011;11580;52.562;13.418;2024-03-02T08:06:49;35.97;;;32.37;;
22826;SDS011;11580;52.562;13.418;2024-03-02T08:09:16;34.80;;;31.20;;
22826;SDS011;11580;52.562;13.418;2024-03-02T08:11:43;39.43;;;32.27;;
22826;SDS011;11580;52.562;13.418;2024-03-02T08:14:10;33.70;;;30.40;;
22826;SDS011;11580;52.562;13.418;2024-03-02T08:16:37;34.57;;;30.73;;
22826;SDS011;11580;52.562;13.418;2024-03-02T08:19:05;35.80;;;32.20;;
22826;SDS011;11580;52.562;13.418;2024-03-02T08:21:33;35.03;;;31.33;;
22826;SDS011;11580;52.562;13.418;2024-03-02T08:24:01;33.50;;;30.10;;
22826;SDS011;11580;52.562;13.418;2024-03-02T08:26:28;35.63;;;31.33;;
22826;SDS011;11580;52.562;13.418;2024-03-02T08:28:57;33.30;;;30.07;;
22826;SDS011;11580;52.562;13.418;2024-03-02T08:31:24;33.17;;;29.90;;
22826;SDS011;11580;52.562;13.418;2024-03-02T08:33:51;32.67;;;29.50;;
22826;SDS011;11580;52.562;13.418;2024-03-02T08:36:18;33.37;;;29.93;;
22826;SDS011;11580;52.562;13.418;2024-03-02T08:38:47;34.50;;;31.00;;
22826;SDS011;11580;52.562;13.418;2024-03-02T08:41:15;35.87;;;32.40;;
22826;SDS011;11580;52.562;13.418;2024-03-02T08:43:43;36.50;;;32.90;;
22826;SDS011;11580;52.562;13.418;2024-03-02T08:46:11;34.10;;;30.67;;
22826;SDS011;11580;52.562;13.418;2024-03-02T08:48:38;33.20;;;29.97;;
22826;SDS011;11580;52.562;13.418;2024-03-02T08:51:05;35.63;;;31.97;;
22826;SDS011;11580;52.562;13.418;2024-03-02T08:53:35;32.37;;;29.07;;
22826;SDS011;11580;52.562;13.418;2024-03-02T08:56:04;33.40;;;30.10;;
22826;SDS011;11580;52.562;13.418;2024-03-02T08:58:32;34.80;;;29.57;;
22826;SDS011;11580;52.562;13.418;2024-03-02T09:00:59;35.30;;;31.40;;
22826;SDS011;11580;52.562;13.418;2024-03-02T09:03:26;34.90;;;31.30;;
22826;SDS011;11580;52.562;13.418;2024-03-02T09:05:54;33.03;;;29.53;;
22826;SDS011;11580;52.562;13.418;2024-03-02T09:08:21;33.37;;;30.17;;
22826;SDS011;11580;52.562;13.418;2024-03-02T09:10:48;30.50;;;27.30;;
22826;SDS011;11580;52.562;13.418;2024-03-02T09:13:17;32.10;;;28.90;;
22826;SDS011;11580;52.562;13.418;2024-03-02T09:15:45;30.57;;;27.37;;
22826;SDS011;11580;52.562;13.418;2024-03-02T09:18:12;33.93;;;30.23;;
22826;SDS011;11580;52.562;13.418;2024-03-02T09:20:40;32.17;;;28.97;;
22826;SDS011;11580;52.562;13.418;2024-03-02T09:23:07;32.27;;;28.90;;
22826;SDS011;11580;52.562;13.418;2024-03-02T09:25:35;33.00;;;29.50;;
22826;SDS011;11580;52.562;13.418;2024-03-02T09:28:02;32.87;;;29.57;;
22826;SDS011;11580;52.562;13.418;2024-03-02T09:30:31;31.43;;;28.23;;
22826;SDS011;11580;52.562;13.418;2024-03-02T09:32:58;33.07;;;29.77;;
22826;SDS011;11580;52.562;13.418;2024-03-02T09:35:26;32.80;;;29.50;;
22826;SDS011;11580;52.562;13.418;2024-03-02T09:37:53;33.77;;;30.50;;
22826;SDS011;11580;52.562;13.418;2024-03-02T09:40:21;31.67;;;28.57;;
22826;SDS011;11580;52.562;13.418;2024-03-02T09:42:49;32.40;;;29.20;;
22826;SDS011;11580;52.562;13.418;2024-03-02T09:45:19;33.23;;;30.10;;
22826;SDS011;11580;52.562;13.418;2024-03-02T09:47:51;33.53;;;30.20;;
22826;SDS011;11580;52.562;13.418;2024-03-02T09:50:18;32.00;;;28.80;;
22826;SDS011;11580;52.562;13.418;2024-03-02T09:52:47;32.47;;;29.07;;
22826;SDS011;11580;52.562;13.418;2024-03-02T09:55:16;30.07;;;27.17;;
22826;SDS011;11580;52.562;13.418;2024-03-02T09:57:44;33.67;;;30.27;;
22826;SDS011;11580;52.562;13.418;2024-03-02T10:00:14;30.60;;;27.60;;
22826;SDS011;11580;52.562;13.418;2024-03-02T10:02:42;31.90;;;28.83;;
22826;SDS011;11580;52.562;13.418;2024-03-02T10:05:11;30.67;;;27.37;;
22826;SDS011;11580;52.562;13.418;2024-03-02T10:07:38;30.33;;;27.43;;
22826;SDS011;11580;52.562;13.418;2024-03-02T10:10:14;31.53;;;28.43;;
22826;SDS011;11580;52.562;13.418;2024-03-02T10:12:42;33.67;;;30.17;;
22826;SDS011;11580;52.562;13.418;2024-03-02T10:15:09;28.03;;;25.23;;
22826;SDS011;11580;52.562;13.418;2024-03-02T10:17:37;30.87;;;27.50;;
22826;SDS011;11580;52.562;13.418;2024-03-02T10:20:24;28.67;;;25.77;;
22826;SDS011;11580;52.562;13.418;2024-03-02T10:22:54;29.40;;;26.60;;
22826;SDS011;11580;52.562;13.418;2024-03-02T10:25:28;29.60;;;26.70;;
22826;SDS011;11580;52.562;13.418;2024-03-02T10:27:57;30.37;;;27.47;;
22826;SDS011;11580;52.562;13.418;2024-03-02T10:30:25;28.10;;;25.50;;
22826;SDS011;11580;52.562;13.418;2024-03-02T10:32:53;26.40;;;23.77;;
22826;SDS011;11580;52.562;13.418;2024-03-02T10:35:21;26.87;;;24.37;;
22826;SDS011;11580;52.562;13.418;2024-03-02T10:37:51;26.53;;;23.93;;
22826;SDS011;11580;52.562;13.418;2024-03-02T10:40:21;25.20;;;22.87;;
22826;SDS011;11580;52.562;13.418;2024-03-02T10:42:49;26.83;;;24.17;;
22826;SDS011;11580;52.562;13.418;2024-03-02T10:45:17;27.20;;;24.67;;
22826;SDS011;11580;52.562;13.418;2024-03-02T10:47:47;26.33;;;23.87;;
22826;SDS011;11580;52.562;13.418;2024-03-02T10:50:15;24.57;;;22.37;;
22826;SDS011;11580;52.562;13.418;2024-03-02T10:52:45;23.00;;;20.83;;
22826;SDS011;11580;52.562;13.418;2024-03-02T10:55:12;22.93;;;20.77;;
22826;SDS011;11580;52.562;13.418;2024-03-02T10:57:45;23.20;;;20.90;;
22826;SDS011;11580;52.562;13.418;2024-03-02T11:00:19;22.23;;;20.13;;
22826;SDS011;11580;52.562;13.418;2024-03-02T11:02:50;21.27;;;19.37;;
22826;SDS011;11580;52.562;13.418;2024-03-02T11:05:25;19.03;;;17.23;;
22826;SDS011;11580;52.562;13.418;2024-03-02T11:08:00;21.83;;;19.77;;
22826;SDS011;11580;52.562;13.418;2024-03-02T11:10:33;22.63;;;20.33;;
22826;SDS011;11580;52.562;13.418;2024-03-02T11:13:05;20.03;;;18.23;;
22826;SDS011;11580;52.562;13.418;2024-03-02T11:15:36;20.13;;;18.23;;
22826;SDS011;11580;52.562;13.418;2024-03-02T11:18:04;19.27;;;17.50;;
22826;SDS011;11580;52.562;13.418;2024-03-02T11:20:35;19.80;;;18.00;;
22826;SDS011;11580;52.562;13.418;2024-03-02T11:23:07;20.00;;;18.30;;
22826;SDS011;11580;52.562;13.418;2024-03-02T11:25:35;20.60;;;18.67;;
22826;SDS011;11580;52.562;13.418;2024-03-02T11:28:04;20.50;;;18.50;;
22826;SDS011;11580;52.562;13.418;2024-03-02T11:33:22;20.10;;;18.20;;
22826;SDS011;11580;52.562;13.418;2024-03-02T11:35:52;20.50;;;18.40;;
22826;SDS011;11580;52.562;13.418;2024-03-02T11:38:21;19.30;;;17.30;;
22826;SDS011;11580;52.562;13.418;2024-03-02T11:40:50;21.07;;;18.83;;
22826;SDS011;11580;52.562;13.418;2024-03-02T11:43:17;18.50;;;16.73;;
22826;SDS011;11580;52.562;13.418;2024-03-02T11:45:46;18.43;;;16.80;;
22826;SDS011;11580;52.562;13.418;2024-03-02T11:48:13;19.50;;;17.50;;
22826;SDS011;11580;52.562;13.418;2024-03-02T11:50:42;17.83;;;16.13;;
22826;SDS011;11580;52.562;13.418;2024-03-02T11:53:14;18.20;;;16.43;;
22826;SDS011;11580;52.562;13.418;2024-03-02T11:55:43;19.47;;;17.70;;
22826;SDS011;11580;52.562;13.418;2024-03-02T11:58:11;18.70;;;17.00;;
22826;SDS011;11580;52.562;13.418;2024-03-02T12:00:39;18.87;;;17.10;;
22826;SDS011;11580;52.562;13.418;2024-03-02T12:03:07;18.83;;;17.23;;
22826;SDS011;11580;52.562;13.418;2024-03-02T12:05:38;19.07;;;17.27;;
22826;SDS011;11580;52.562;13.418;2024-03-02T12:08:06;19.10;;;17.23;;
22826;SDS011;11580;52.562;13.418;2024-03-02T12:10:34;20.37;;;18.23;;
22826;SDS011;11580;52.562;13.418;2024-03-02T12:13:04;17.93;;;16.33;;
22826;SDS011;11580;52.562;13.418;2024-03-02T12:15:35;18.23;;;16.63;;
22826;SDS011;11580;52.562;13.418;2024-03-02T12:18:04;17.37;;;15.70;;
22826;SDS011;11580;52.562;13.418;2024-03-02T12:20:33;18.40;;;16.70;;
22826;SDS011;11580;52.562;13.418;2024-03-02T12:23:01;18.07;;;16.57;;
22826;SDS011;11580;52.562;13.418;2024-03-02T12:25:31;17.87;;;16.10;;
22826;SDS011;11580;52.562;13.418;2024-03-02T12:27:59;19.23;;;17.47;;
22826;SDS011;11580;52.562;13.418;2024-03-02T12:30:29;18.63;;;16.90;;
22826;SDS011;11580;52.562;13.418;2024-03-02T12:33:01;18.63;;;17.00;;
22826;SDS011;11580;52.562;13.418;2024-03-02T12:35:29;16.80;;;15.20;;
22826;SDS011;11580;52.562;13.418;2024-03-02T12:37:56;14.30;;;13.00;;
22826;SDS011;11580;52.562;13.418;2024-03-02T12:40:24;14.57;;;13.20;;
22826;SDS011;11580;52.562;13.418;2024-03-02T12:42:52;14.17;;;12.87;;
22826;SDS011;11580;52.562;13.418;2024-03-02T12:45:19;14.60;;;13.20;;
22826;SDS011;11580;52.562;13.418;2024-03-02T12:47:50;14.90;;;13.50;;
22826;SDS011;11580;52.562;13.418;2024-03-02T12:50:17;15.47;;;13.97;;
22826;SDS011;11580;52.562;13.418;2024-03-02T12:52:50;15.23;;;13.83;;
22826;SDS011;11580;52.562;13.418;2024-03-02T12:55:19;15.80;;;14.30;;
22826;SDS011;11580;52.562;13.418;2024-03-02T12:57:49;15.23;;;13.83;;
22826;SDS011;11580;52.562;13.418;2024-03-02T13:00:17;16.53;;;14.83;;
22826;SDS011;11580;52.562;13.418;2024-03-02T13:02:46;17.30;;;15.70;;
22826;SDS011;11580;52.562;13.418;2024-03-02T13:05:17;17.70;;;16.10;;
22826;SDS011;11580;52.562;13.418;2024-03-02T13:07:46;16.40;;;14.73;;
22826;SDS011;11580;52.562;13.418;2024-03-02T13:10:14;17.10;;;15.50;;
22826;SDS011;11580;52.562;13.418;2024-03-02T13:12:41;15.83;;;14.33;;
22826;SDS011;11580;52.562;13.418;2024-03-02T13:15:09;16.80;;;15.30;;
22826;SDS011;11580;52.562;13.418;2024-03-02T13:17:36;16.20;;;14.70;;
22826;SDS011;11580;52.562;13.418;2024-03-02T13:20:05;17.70;;;16.10;;
22826;SDS011;11580;52.562;13.418;2024-03-02T13:22:36;16.27;;;14.77;;
22826;SDS011;11580;52.562;13.418;2024-03-02T13:25:04;16.50;;;15.10;;
22826;SDS011;11580;52.562;13.418;2024-03-02T13:27:35;15.63;;;14.33;;
22826;SDS011;11580;52.562;13.418;2024-03-02T13:30:03;14.30;;;13.10;;
22826;SDS011;11580;52.562;13.418;2024-03-02T13:32:31;13.60;;;12.50;;
22826;SDS011;11580;52.562;13.418;2024-03-02T13:34:58;12.00;;;10.90;;
22826;SDS011;11580;52.562;13.418;2024-03-02T13:37:26;11.13;;;10.20;;
22826;SDS011;11580;52.562;13.418;2024-03-02T13:39:54;10.30;;;9.40;;
22826;SDS011;11580;52.562;13.418;2024-03-02T13:42:21;10.83;;;9.93;;
22826;SDS011;11580;52.562;13.418;2024-03-02T13:44:49;11.57;;;10.50;;
22826;SDS011;11580;52.562;13.418;2024-03-02T13:47:17;11.77;;;10.70;;
22826;SDS011;11580;52.562;13.418;2024-03-02T13:49:46;11.83;;;10.73;;
22826;SDS011;11580;52.562;13.418;2024-03-02T13:52:14;11.10;;;10.10;;
22826;SDS011;11580;52.562;13.418;2024-03-02T13:54:42;12.97;;;11.77;;
22826;SDS011;11580;52.562;13.418;2024-03-02T13:57:12;10.50;;;9.70;;
22826;SDS011;11580;52.562;13.418;2024-03-02T13:59:40;11.33;;;10.43;;
22826;SDS011;11580;52.562;13.418;2024-03-02T14:02:08;11.17;;;10.27;;
22826;SDS011;11580;52.562;13.418;2024-03-02T14:04:37;11.67;;;10.53;;
22826;SDS011;11580;52.562;13.418;2024-03-02T14:07:05;11.97;;;10.87;;
22826;SDS011;11580;52.562;13.418;2024-03-02T14:09:33;11.47;;;10.47;;
22826;SDS011;11580;52.562;13.418;2024-03-02T14:12:00;11.93;;;10.93;;
22826;SDS011;11580;52.562;13.418;2024-03-02T14:14:30;10.90;;;10.00;;
22826;SDS011;11580;52.562;13.418;2024-03-02T14:16:57;11.50;;;10.50;;
22826;SDS011;11580;52.562;13.418;2024-03-02T14:19:28;12.60;;;11.43;;